Japan Airlines Virtual Airport Information Service

Nagoya Chubu Centrair International Airport

ICAO: RJGG Country: Japan
Latitude: 34.8584 Longitude: 136.805
Latest Arrival : JAL3083 (RJAA-RJGG) Latest Departure : CPA539 (RJGG-VHHH)


WX CaptureLIVE
Data provided by noaa.gov | Fetched at 14:01:16

METAR : RJGG 061330Z 10006KT 9999 FEW020 27/24 Q1011 NOSIG

TAF : RJGG 061105Z 0612/0718 12008KT 9999 FEW020 BECMG 0615/0617 36004KT BECMG 0700/0703 16008KT


Runway Data for RJGG
Data provided by openaviationdata.com

Runway ID Mag Var Hdg Length Elevation Surface ILS Freq ILS Id ILS Slope
18 -7 175° 11897 ft 12 ft Asphalt 109.7 ICY 3
36 -7 355° 11897 ft 12 ft Asphalt 111.9 ICX 3

Nagoya Chubu Centrair International Airport, Japan
Use only for reference purposes



Not for navigational purposes.